Ribeirao Cascalheira, Brazil
Current Conditions -  °F | °C
As of 7:15 AM on Saturday 20 Dec 2014 (Local Time) from SBBW Reporting Station
Overcast Overcast  
Wind Chill: 72°   Ceiling: 1000
Heat Index: 72°   Visibility: 6mi
Dew Point: 72°   Wind: 5mph
Humidity: 100%   Direction: 50°NE
Pressure: 29.88"   Gusts: NA
Location:  12.94°S, 51.82°W
Report Text: SBBW 201015Z 05004KT 9999 SCT006 BKN010 OVC070 22/22 Q1012
Loading
Personal Weather Stations






























Interactive Weather Map New forecast layout! Learn more

10-Day Weather Forecast

Advertisements
Track Severe Weather on mobile